RYR38CH EGSS-EPMO
Flight info
| Callsign | RYR38CH |
|---|---|
| Flight time | 1h 59m |
| Altitude | 37000 |
| Route | CLN P44 RATLO M197 REDFA L620 TACHA DCT RKN L980 HLZ DCT SUBIX DCT OBOKU DCT DOSIX |
| Aircraft | B738/M-SDE2E3FGHIRWXY/LB1 |
Departure
| Time | 2026-05-07 16:08 |
|---|---|
| Airport | London Stansted Airport (EGSS) |
Arrival
| Time | 2026-05-07 18:07 |
|---|---|
| Airport | Warsaw Modlin Airport (EPMO) |
| Time | Latitude | Longitude | Altitude | Speed | Heading |
|---|---|---|---|---|---|
| 2026-05-07 15:45 | 51.89329 | 0.26090 | 351 ft | 0 kts | 224° |
| 2026-05-07 15:57 | 51.89334 | 0.26097 | 357 ft | 2 kts | 225° |
| 2026-05-07 15:57 | 51.89344 | 0.26118 | 357 ft | 2 kts | 240° |
| 2026-05-07 15:58 | 51.89350 | 0.26142 | 353 ft | 2 kts | 263° |
| 2026-05-07 15:58 | 51.89348 | 0.26169 | 356 ft | 2 kts | 295° |
| 2026-05-07 15:58 | 51.89340 | 0.26189 | 353 ft | 1 kts | 312° |
| 2026-05-07 15:58 | 51.89338 | 0.26192 | 358 ft | 0 kts | 313° |
| 2026-05-07 16:00 | 51.89360 | 0.26155 | 350 ft | 13 kts | 313° |
| 2026-05-07 16:01 | 51.89427 | 0.26038 | 348 ft | 14 kts | 313° |
| 2026-05-07 16:01 | 51.89494 | 0.25920 | 345 ft | 15 kts | 313° |
| 2026-05-07 16:01 | 51.89501 | 0.25766 | 346 ft | 17 kts | 223° |
| 2026-05-07 16:01 | 51.89401 | 0.25614 | 343 ft | 26 kts | 223° |
| 2026-05-07 16:02 | 51.89253 | 0.25392 | 346 ft | 29 kts | 223° |
| 2026-05-07 16:02 | 51.89110 | 0.25183 | 342 ft | 27 kts | 223° |
| 2026-05-07 16:02 | 51.88981 | 0.24985 | 342 ft | 25 kts | 222° |
| 2026-05-07 16:02 | 51.88852 | 0.24792 | 342 ft | 27 kts | 223° |
| 2026-05-07 16:03 | 51.88715 | 0.24585 | 343 ft | 26 kts | 223° |
| 2026-05-07 16:03 | 51.88586 | 0.24392 | 350 ft | 24 kts | 223° |
| 2026-05-07 16:03 | 51.88463 | 0.24207 | 340 ft | 28 kts | 223° |
| 2026-05-07 16:03 | 51.88311 | 0.23980 | 335 ft | 29 kts | 223° |
| 2026-05-07 16:04 | 51.88165 | 0.23762 | 333 ft | 28 kts | 223° |
| 2026-05-07 16:04 | 51.88029 | 0.23556 | 335 ft | 26 kts | 223° |
| 2026-05-07 16:04 | 51.87902 | 0.23366 | 334 ft | 24 kts | 222° |
| 2026-05-07 16:04 | 51.87784 | 0.23188 | 336 ft | 23 kts | 223° |
| 2026-05-07 16:05 | 51.87732 | 0.23048 | 336 ft | 13 kts | 288° |
| 2026-05-07 16:05 | 51.87790 | 0.22934 | 333 ft | 14 kts | 312° |
| 2026-05-07 16:05 | 51.87860 | 0.22811 | 336 ft | 15 kts | 312° |
| 2026-05-07 16:05 | 51.87928 | 0.22695 | 333 ft | 14 kts | 323° |
| 2026-05-07 16:06 | 51.87988 | 0.22712 | 332 ft | 0 kts | 43° |
| 2026-05-07 16:07 | 51.87994 | 0.22721 | 330 ft | 6 kts | 43° |
| 2026-05-07 16:07 | 51.88179 | 0.22998 | 329 ft | 72 kts | 43° |
| 2026-05-07 16:07 | 51.88710 | 0.23796 | 336 ft | 134 kts | 43° |
| 2026-05-07 16:08 | 51.89498 | 0.24963 | 528 ft | 167 kts | 45° |
| 2026-05-07 16:08 | 51.90387 | 0.26243 | 1180 ft | 180 kts | 44° |
| 2026-05-07 16:08 | 51.91325 | 0.27626 | 1951 ft | 177 kts | 45° |
| 2026-05-07 16:08 | 51.92194 | 0.28985 | 2817 ft | 175 kts | 47° |
| 2026-05-07 16:09 | 51.93015 | 0.30497 | 3365 ft | 186 kts | 64° |
| 2026-05-07 16:09 | 51.93224 | 0.32640 | 3617 ft | 207 kts | 107° |
| 2026-05-07 16:09 | 51.92390 | 0.34588 | 3825 ft | 221 kts | 140° |
| 2026-05-07 16:09 | 51.91232 | 0.36380 | 3943 ft | 236 kts | 134° |
| 2026-05-07 16:10 | 51.90200 | 0.38470 | 3960 ft | 239 kts | 126° |
| 2026-05-07 16:10 | 51.89349 | 0.40779 | 3965 ft | 239 kts | 121° |
| 2026-05-07 16:10 | 51.88526 | 0.43121 | 3949 ft | 239 kts | 122° |
| 2026-05-07 16:10 | 51.87696 | 0.45559 | 3956 ft | 255 kts | 120° |
| 2026-05-07 16:11 | 51.86867 | 0.48139 | 3940 ft | 262 kts | 119° |
| 2026-05-07 16:11 | 51.86048 | 0.50777 | 4014 ft | 264 kts | 117° |
| 2026-05-07 16:11 | 51.85252 | 0.53426 | 4602 ft | 267 kts | 117° |
| 2026-05-07 16:11 | 51.84446 | 0.56142 | 4973 ft | 268 kts | 117° |
| 2026-05-07 16:12 | 51.83651 | 0.58861 | 4981 ft | 267 kts | 116° |
| 2026-05-07 16:12 | 51.83109 | 0.61747 | 4983 ft | 270 kts | 102° |
| 2026-05-07 16:12 | 51.82951 | 0.64765 | 4985 ft | 271 kts | 90° |
| 2026-05-07 16:12 | 51.83038 | 0.67815 | 4987 ft | 271 kts | 88° |
| 2026-05-07 16:13 | 51.83174 | 0.70856 | 4989 ft | 271 kts | 88° |
| 2026-05-07 16:13 | 51.83316 | 0.73906 | 5132 ft | 274 kts | 87° |
| 2026-05-07 16:13 | 51.83447 | 0.77007 | 5724 ft | 277 kts | 87° |
| 2026-05-07 16:13 | 51.83571 | 0.80133 | 5956 ft | 281 kts | 88° |
| 2026-05-07 16:14 | 51.83691 | 0.83281 | 5994 ft | 279 kts | 88° |
| 2026-05-07 16:14 | 51.83802 | 0.86392 | 5981 ft | 276 kts | 88° |
| 2026-05-07 16:14 | 51.83914 | 0.89479 | 5993 ft | 275 kts | 88° |
| 2026-05-07 16:14 | 51.84024 | 0.92574 | 6035 ft | 277 kts | 88° |
| 2026-05-07 16:15 | 51.84134 | 0.95682 | 6582 ft | 281 kts | 88° |
| 2026-05-07 16:15 | 51.84248 | 0.98874 | 7417 ft | 282 kts | 88° |
| 2026-05-07 16:15 | 51.84359 | 1.02011 | 8186 ft | 284 kts | 89° |
| 2026-05-07 16:15 | 51.84471 | 1.05201 | 9000 ft | 285 kts | 88° |
| 2026-05-07 16:16 | 51.84582 | 1.08437 | 9714 ft | 290 kts | 88° |
| 2026-05-07 16:16 | 51.84694 | 1.11703 | 10406 ft | 295 kts | 88° |
| 2026-05-07 16:16 | 51.84881 | 1.15130 | 10595 ft | 320 kts | 79° |
| 2026-05-07 16:16 | 51.85674 | 1.18640 | 10811 ft | 342 kts | 67° |
| 2026-05-07 16:17 | 51.86679 | 1.22240 | 11058 ft | 359 kts | 66° |
| 2026-05-07 16:17 | 51.87733 | 1.25968 | 11588 ft | 367 kts | 66° |
| 2026-05-07 16:17 | 51.88791 | 1.29749 | 12283 ft | 369 kts | 67° |
| 2026-05-07 16:17 | 51.89842 | 1.33562 | 12979 ft | 373 kts | 67° |
| 2026-05-07 16:18 | 51.90537 | 1.36109 | 13460 ft | 375 kts | 67° |
| 2026-05-07 16:18 | 51.91586 | 1.39992 | 14152 ft | 379 kts | 68° |
| 2026-05-07 16:18 | 51.92647 | 1.43943 | 14741 ft | 384 kts | 68° |
| 2026-05-07 16:18 | 51.93712 | 1.47927 | 15444 ft | 386 kts | 67° |
| 2026-05-07 16:19 | 51.94788 | 1.51960 | 16007 ft | 393 kts | 67° |
| 2026-05-07 16:19 | 51.95874 | 1.56042 | 16750 ft | 394 kts | 67° |
| 2026-05-07 16:19 | 51.96968 | 1.60153 | 17323 ft | 400 kts | 67° |
| 2026-05-07 16:19 | 51.98074 | 1.64320 | 17968 ft | 403 kts | 67° |
| 2026-05-07 16:20 | 51.99163 | 1.68535 | 18582 ft | 407 kts | 70° |
| 2026-05-07 16:20 | 51.99980 | 1.72902 | 19087 ft | 411 kts | 76° |
| 2026-05-07 16:20 | 52.00677 | 1.77422 | 19668 ft | 413 kts | 77° |
| 2026-05-07 16:20 | 52.01349 | 1.81980 | 20207 ft | 417 kts | 77° |
| 2026-05-07 16:21 | 52.02027 | 1.86575 | 20746 ft | 420 kts | 77° |
| 2026-05-07 16:21 | 52.02721 | 1.91203 | 21271 ft | 423 kts | 77° |
| 2026-05-07 16:21 | 52.03431 | 1.95870 | 21802 ft | 427 kts | 76° |
| 2026-05-07 16:21 | 52.04150 | 2.00556 | 22322 ft | 430 kts | 76° |
| 2026-05-07 16:22 | 52.04878 | 2.05281 | 22822 ft | 433 kts | 76° |
| 2026-05-07 16:22 | 52.05611 | 2.10038 | 23307 ft | 436 kts | 76° |
| 2026-05-07 16:22 | 52.06350 | 2.14844 | 23753 ft | 440 kts | 76° |
| 2026-05-07 16:22 | 52.07090 | 2.19678 | 24162 ft | 442 kts | 76° |
| 2026-05-07 16:23 | 52.07835 | 2.24557 | 24611 ft | 444 kts | 76° |
| 2026-05-07 16:23 | 52.08577 | 2.29433 | 25038 ft | 445 kts | 76° |
| 2026-05-07 16:23 | 52.09320 | 2.34334 | 25430 ft | 448 kts | 76° |
| 2026-05-07 16:23 | 52.10066 | 2.39265 | 25819 ft | 450 kts | 76° |
| 2026-05-07 16:24 | 52.10816 | 2.44234 | 26196 ft | 452 kts | 77° |
| 2026-05-07 16:24 | 52.11573 | 2.49228 | 26562 ft | 455 kts | 76° |
| 2026-05-07 16:24 | 52.12435 | 2.54202 | 26899 ft | 458 kts | 73° |
| 2026-05-07 16:24 | 52.13378 | 2.59159 | 27267 ft | 460 kts | 73° |
| 2026-05-07 16:25 | 52.14352 | 2.64128 | 27620 ft | 462 kts | 73° |
| 2026-05-07 16:25 | 52.15329 | 2.69121 | 27972 ft | 464 kts | 73° |
| 2026-05-07 16:25 | 52.16286 | 2.74077 | 28298 ft | 466 kts | 73° |
| 2026-05-07 16:25 | 52.17250 | 2.79138 | 28632 ft | 468 kts | 73° |
| 2026-05-07 16:26 | 52.18205 | 2.84209 | 28964 ft | 470 kts | 73° |
| 2026-05-07 16:26 | 52.19159 | 2.89307 | 29335 ft | 470 kts | 73° |
| 2026-05-07 16:26 | 52.20108 | 2.94396 | 29787 ft | 469 kts | 74° |
| 2026-05-07 16:26 | 52.21058 | 2.99501 | 30128 ft | 470 kts | 73° |
| 2026-05-07 16:27 | 52.22005 | 3.04607 | 30379 ft | 472 kts | 73° |
| 2026-05-07 16:27 | 52.22954 | 3.09732 | 30794 ft | 469 kts | 73° |
| 2026-05-07 16:27 | 52.23896 | 3.14825 | 31207 ft | 468 kts | 74° |
| 2026-05-07 16:27 | 52.24823 | 3.19885 | 31778 ft | 460 kts | 75° |
| 2026-05-07 16:28 | 52.25464 | 3.24931 | 32489 ft | 451 kts | 84° |
| 2026-05-07 16:28 | 52.25617 | 3.30041 | 32629 ft | 454 kts | 93° |
| 2026-05-07 16:28 | 52.25499 | 3.35208 | 32763 ft | 457 kts | 93° |
| 2026-05-07 16:28 | 52.25353 | 3.40408 | 33039 ft | 458 kts | 94° |
| 2026-05-07 16:29 | 52.25203 | 3.45593 | 33449 ft | 455 kts | 93° |
| 2026-05-07 16:29 | 52.25059 | 3.50759 | 33696 ft | 457 kts | 94° |
| 2026-05-07 16:29 | 52.24924 | 3.55960 | 33885 ft | 459 kts | 93° |
| 2026-05-07 16:29 | 52.24797 | 3.61153 | 34247 ft | 457 kts | 92° |
| 2026-05-07 16:30 | 52.24672 | 3.66332 | 34463 ft | 458 kts | 93° |
| 2026-05-07 16:30 | 52.24548 | 3.71533 | 34645 ft | 459 kts | 93° |
| 2026-05-07 16:30 | 52.24423 | 3.76734 | 34877 ft | 459 kts | 94° |
| 2026-05-07 16:30 | 52.24296 | 3.81941 | 35068 ft | 460 kts | 94° |
| 2026-05-07 16:31 | 52.24166 | 3.87159 | 35314 ft | 460 kts | 93° |
| 2026-05-07 16:31 | 52.24035 | 3.92307 | 35512 ft | 460 kts | 93° |
| 2026-05-07 16:31 | 52.23900 | 3.97536 | 35692 ft | 461 kts | 93° |
| 2026-05-07 16:31 | 52.23762 | 4.02767 | 35897 ft | 462 kts | 94° |
| 2026-05-07 16:32 | 52.23621 | 4.08017 | 36106 ft | 462 kts | 94° |
| 2026-05-07 16:32 | 52.23479 | 4.13247 | 36339 ft | 462 kts | 94° |
| 2026-05-07 16:32 | 52.23333 | 4.18487 | 36532 ft | 462 kts | 94° |
| 2026-05-07 16:32 | 52.23185 | 4.23756 | 36718 ft | 463 kts | 94° |
| 2026-05-07 16:33 | 52.23035 | 4.28987 | 36934 ft | 463 kts | 94° |
| 2026-05-07 16:33 | 52.22882 | 4.34239 | 37075 ft | 463 kts | 94° |
| 2026-05-07 16:33 | 52.22729 | 4.39438 | 37063 ft | 465 kts | 94° |
| 2026-05-07 16:34 | 52.22411 | 4.49978 | 37071 ft | 463 kts | 94° |
| 2026-05-07 16:34 | 52.22086 | 4.60445 | 37072 ft | 461 kts | 94° |
| 2026-05-07 16:35 | 52.21753 | 4.70873 | 37075 ft | 460 kts | 94° |
| 2026-05-07 16:35 | 52.21412 | 4.81276 | 37080 ft | 458 kts | 94° |
| 2026-05-07 16:36 | 52.21062 | 4.91658 | 37078 ft | 458 kts | 94° |
| 2026-05-07 16:36 | 52.20704 | 5.01990 | 37072 ft | 459 kts | 94° |
| 2026-05-07 16:37 | 52.20334 | 5.12403 | 37075 ft | 460 kts | 94° |
| 2026-05-07 16:37 | 52.19954 | 5.22852 | 37073 ft | 462 kts | 95° |
| 2026-05-07 16:38 | 52.19576 | 5.33311 | 37089 ft | 463 kts | 95° |
| 2026-05-07 16:38 | 52.19175 | 5.43732 | 37068 ft | 464 kts | 95° |
| 2026-05-07 16:39 | 52.18758 | 5.54272 | 37068 ft | 466 kts | 95° |
| 2026-05-07 16:39 | 52.18335 | 5.64819 | 37072 ft | 467 kts | 95° |
| 2026-05-07 16:40 | 52.17903 | 5.75389 | 37072 ft | 467 kts | 95° |
| 2026-05-07 16:40 | 52.17462 | 5.85968 | 37075 ft | 468 kts | 95° |
| 2026-05-07 16:41 | 52.17011 | 5.96541 | 37066 ft | 467 kts | 95° |
| 2026-05-07 16:41 | 52.16553 | 6.07062 | 37068 ft | 467 kts | 95° |
| 2026-05-07 16:42 | 52.16085 | 6.17605 | 37062 ft | 466 kts | 95° |
| 2026-05-07 16:42 | 52.15608 | 6.28130 | 37054 ft | 465 kts | 95° |
| 2026-05-07 16:43 | 52.15126 | 6.38547 | 37050 ft | 464 kts | 95° |
| 2026-05-07 16:43 | 52.14632 | 6.49027 | 37045 ft | 463 kts | 95° |
| 2026-05-07 16:44 | 52.14131 | 6.59485 | 37052 ft | 463 kts | 95° |
| 2026-05-07 16:44 | 52.13622 | 6.69924 | 37056 ft | 462 kts | 96° |
| 2026-05-07 16:45 | 52.13348 | 6.80397 | 37046 ft | 463 kts | 86° |
| 2026-05-07 16:45 | 52.13935 | 6.90786 | 37051 ft | 464 kts | 85° |
| 2026-05-07 16:46 | 52.14510 | 7.01269 | 37065 ft | 464 kts | 86° |
| 2026-05-07 16:46 | 52.15036 | 7.11762 | 37064 ft | 465 kts | 86° |
| 2026-05-07 16:47 | 52.15555 | 7.22263 | 37066 ft | 465 kts | 86° |
| 2026-05-07 16:47 | 52.16069 | 7.32767 | 37071 ft | 466 kts | 86° |
| 2026-05-07 16:48 | 52.16576 | 7.43293 | 37077 ft | 466 kts | 86° |
| 2026-05-07 16:48 | 52.17073 | 7.53829 | 37099 ft | 466 kts | 86° |
| 2026-05-07 16:49 | 52.17560 | 7.64304 | 37108 ft | 467 kts | 86° |
| 2026-05-07 16:49 | 52.17988 | 7.74919 | 37109 ft | 467 kts | 88° |
| 2026-05-07 16:50 | 52.18358 | 7.85436 | 37091 ft | 468 kts | 87° |
| 2026-05-07 16:50 | 52.18781 | 7.96022 | 37089 ft | 468 kts | 87° |
| 2026-05-07 16:51 | 52.19193 | 8.06596 | 37087 ft | 467 kts | 87° |
| 2026-05-07 16:51 | 52.19586 | 8.17167 | 37084 ft | 467 kts | 87° |
| 2026-05-07 16:52 | 52.19970 | 8.27737 | 37088 ft | 466 kts | 87° |
| 2026-05-07 16:52 | 52.20356 | 8.38223 | 37074 ft | 466 kts | 87° |
| 2026-05-07 16:53 | 52.20744 | 8.48839 | 37085 ft | 466 kts | 87° |
| 2026-05-07 16:53 | 52.21127 | 8.59399 | 37084 ft | 467 kts | 87° |
| 2026-05-07 16:54 | 52.21502 | 8.69960 | 37080 ft | 466 kts | 87° |
| 2026-05-07 16:54 | 52.21864 | 8.80441 | 37092 ft | 465 kts | 87° |
| 2026-05-07 16:55 | 52.22220 | 8.90984 | 37111 ft | 465 kts | 87° |
| 2026-05-07 16:55 | 52.22566 | 9.01515 | 37111 ft | 466 kts | 87° |
| 2026-05-07 16:56 | 52.22913 | 9.12070 | 37095 ft | 465 kts | 87° |
| 2026-05-07 16:56 | 52.23429 | 9.27862 | 37107 ft | 464 kts | 88° |
| 2026-05-07 16:57 | 52.23743 | 9.38383 | 37102 ft | 464 kts | 88° |
| 2026-05-07 16:57 | 52.24041 | 9.48840 | 37101 ft | 464 kts | 88° |
| 2026-05-07 16:58 | 52.24334 | 9.59361 | 37090 ft | 464 kts | 88° |
| 2026-05-07 16:58 | 52.24620 | 9.69871 | 37109 ft | 464 kts | 88° |
| 2026-05-07 16:59 | 52.24897 | 9.80394 | 37110 ft | 464 kts | 88° |
| 2026-05-07 16:59 | 52.25307 | 9.90910 | 37094 ft | 464 kts | 81° |
| 2026-05-07 17:00 | 52.26595 | 10.01228 | 37099 ft | 464 kts | 78° |
| 2026-05-07 17:00 | 52.27751 | 10.09799 | 37109 ft | 465 kts | 78° |
| 2026-05-07 17:01 | 52.29298 | 10.21816 | 37080 ft | 465 kts | 79° |
| 2026-05-07 17:01 | 52.30581 | 10.32176 | 37104 ft | 466 kts | 79° |
| 2026-05-07 17:02 | 52.31645 | 10.40879 | 37112 ft | 466 kts | 79° |
| 2026-05-07 17:02 | 52.32911 | 10.51281 | 37091 ft | 467 kts | 79° |
| 2026-05-07 17:03 | 52.34164 | 10.61649 | 37099 ft | 467 kts | 79° |
| 2026-05-07 17:03 | 52.35418 | 10.72089 | 37097 ft | 467 kts | 79° |
| 2026-05-07 17:04 | 52.36489 | 10.82549 | 37083 ft | 467 kts | 87° |
| 2026-05-07 17:04 | 52.36714 | 10.93162 | 37091 ft | 466 kts | 89° |
| 2026-05-07 17:05 | 52.36822 | 11.03778 | 37076 ft | 466 kts | 89° |
| 2026-05-07 17:05 | 52.36964 | 11.14323 | 37077 ft | 466 kts | 89° |
| 2026-05-07 17:06 | 52.37135 | 11.24965 | 37073 ft | 467 kts | 89° |
| 2026-05-07 17:06 | 52.37309 | 11.35586 | 37072 ft | 467 kts | 89° |
| 2026-05-07 17:07 | 52.37475 | 11.46200 | 37070 ft | 467 kts | 89° |
| 2026-05-07 17:07 | 52.37629 | 11.56820 | 37073 ft | 467 kts | 89° |
| 2026-05-07 17:08 | 52.37772 | 11.67382 | 37068 ft | 467 kts | 89° |
| 2026-05-07 17:08 | 52.37905 | 11.78011 | 37063 ft | 467 kts | 89° |
| 2026-05-07 17:09 | 52.38030 | 11.88639 | 37070 ft | 467 kts | 90° |
| 2026-05-07 17:09 | 52.38145 | 11.99265 | 37062 ft | 467 kts | 90° |
| 2026-05-07 17:10 | 52.38251 | 12.09904 | 37063 ft | 467 kts | 90° |
| 2026-05-07 17:10 | 52.38347 | 12.20543 | 37065 ft | 467 kts | 90° |
| 2026-05-07 17:11 | 52.38433 | 12.31180 | 37070 ft | 467 kts | 90° |
| 2026-05-07 17:11 | 52.38510 | 12.41756 | 37064 ft | 467 kts | 90° |
| 2026-05-07 17:12 | 52.38577 | 12.52403 | 37054 ft | 467 kts | 90° |
| 2026-05-07 17:12 | 52.38635 | 12.63052 | 37060 ft | 467 kts | 90° |
| 2026-05-07 17:13 | 52.38684 | 12.73707 | 37060 ft | 467 kts | 90° |
| 2026-05-07 17:13 | 52.38722 | 12.84292 | 37059 ft | 468 kts | 90° |
| 2026-05-07 17:14 | 52.38751 | 12.94938 | 37061 ft | 468 kts | 91° |
| 2026-05-07 17:14 | 52.38771 | 13.05586 | 37062 ft | 468 kts | 91° |
| 2026-05-07 17:15 | 52.38781 | 13.16247 | 37075 ft | 468 kts | 91° |
| 2026-05-07 17:15 | 52.38782 | 13.26906 | 37077 ft | 468 kts | 91° |
| 2026-05-07 17:16 | 52.38773 | 13.37568 | 37078 ft | 468 kts | 91° |
| 2026-05-07 17:16 | 52.38754 | 13.48231 | 37076 ft | 469 kts | 91° |
| 2026-05-07 17:17 | 52.38726 | 13.58902 | 37073 ft | 469 kts | 92° |
| 2026-05-07 17:17 | 52.38688 | 13.69499 | 37076 ft | 469 kts | 92° |
| 2026-05-07 17:18 | 52.38641 | 13.80187 | 37080 ft | 469 kts | 92° |
| 2026-05-07 17:18 | 52.38584 | 13.90861 | 37075 ft | 469 kts | 92° |
| 2026-05-07 17:19 | 52.38517 | 14.01570 | 37074 ft | 470 kts | 92° |
| 2026-05-07 17:19 | 52.38441 | 14.12240 | 37066 ft | 470 kts | 92° |
| 2026-05-07 17:20 | 52.38355 | 14.22933 | 37067 ft | 470 kts | 92° |
| 2026-05-07 17:20 | 52.38260 | 14.33640 | 37067 ft | 470 kts | 92° |
| 2026-05-07 17:21 | 52.38154 | 14.44340 | 37061 ft | 470 kts | 92° |
| 2026-05-07 17:21 | 52.38042 | 14.54994 | 37062 ft | 471 kts | 93° |
| 2026-05-07 17:22 | 52.37874 | 14.65700 | 37062 ft | 470 kts | 94° |
| 2026-05-07 17:22 | 52.37603 | 14.76399 | 37058 ft | 470 kts | 94° |
| 2026-05-07 17:23 | 52.37315 | 14.87108 | 37059 ft | 470 kts | 94° |
| 2026-05-07 17:23 | 52.37030 | 14.97806 | 37058 ft | 470 kts | 94° |
| 2026-05-07 17:24 | 52.36743 | 15.08505 | 37046 ft | 470 kts | 95° |
| 2026-05-07 17:24 | 52.36450 | 15.19119 | 37054 ft | 470 kts | 95° |
| 2026-05-07 17:25 | 52.36145 | 15.29804 | 37051 ft | 470 kts | 95° |
| 2026-05-07 17:25 | 52.35830 | 15.40508 | 37051 ft | 470 kts | 95° |
| 2026-05-07 17:26 | 52.35505 | 15.51196 | 37055 ft | 470 kts | 95° |
| 2026-05-07 17:26 | 52.35172 | 15.61818 | 37043 ft | 470 kts | 95° |
| 2026-05-07 17:27 | 52.34828 | 15.72503 | 37045 ft | 470 kts | 96° |
| 2026-05-07 17:27 | 52.34474 | 15.83203 | 37049 ft | 470 kts | 96° |
| 2026-05-07 17:28 | 52.34111 | 15.93875 | 37040 ft | 470 kts | 96° |
| 2026-05-07 17:28 | 52.33738 | 16.04554 | 37031 ft | 470 kts | 96° |
| 2026-05-07 17:29 | 52.33357 | 16.15183 | 37038 ft | 470 kts | 96° |
| 2026-05-07 17:29 | 52.32964 | 16.25887 | 37051 ft | 471 kts | 96° |
| 2026-05-07 17:30 | 52.32562 | 16.36576 | 37053 ft | 471 kts | 96° |
| 2026-05-07 17:30 | 52.32150 | 16.47271 | 37052 ft | 471 kts | 96° |
| 2026-05-07 17:31 | 52.31728 | 16.57964 | 37035 ft | 472 kts | 97° |
| 2026-05-07 17:31 | 52.31297 | 16.68618 | 37048 ft | 472 kts | 97° |
| 2026-05-07 17:32 | 52.30855 | 16.79339 | 37049 ft | 472 kts | 97° |
| 2026-05-07 17:32 | 52.30544 | 16.86736 | 37046 ft | 472 kts | 97° |
| 2026-05-07 17:34 | 52.30277 | 16.92334 | 37060 ft | 472 kts | 98° |
| 2026-05-07 17:34 | 52.29816 | 17.02948 | 37046 ft | 472 kts | 97° |
| 2026-05-07 17:35 | 52.29364 | 17.13669 | 37031 ft | 472 kts | 98° |
| 2026-05-07 17:35 | 52.29127 | 17.19080 | 36586 ft | 478 kts | 98° |
| 2026-05-07 17:35 | 52.28885 | 17.24482 | 36070 ft | 475 kts | 98° |
| 2026-05-07 17:36 | 52.28643 | 17.29792 | 35451 ft | 475 kts | 99° |
| 2026-05-07 17:36 | 52.28394 | 17.35177 | 34823 ft | 474 kts | 99° |
| 2026-05-07 17:36 | 52.28142 | 17.40561 | 34164 ft | 474 kts | 100° |
| 2026-05-07 17:36 | 52.27888 | 17.45932 | 33373 ft | 475 kts | 100° |
| 2026-05-07 17:37 | 52.27631 | 17.51311 | 32633 ft | 474 kts | 100° |
| 2026-05-07 17:37 | 52.27374 | 17.56665 | 31879 ft | 473 kts | 101° |
| 2026-05-07 17:37 | 52.27115 | 17.62009 | 31223 ft | 471 kts | 101° |
| 2026-05-07 17:37 | 52.26857 | 17.67304 | 30892 ft | 462 kts | 102° |
| 2026-05-07 17:38 | 52.26606 | 17.72476 | 30515 ft | 454 kts | 102° |
| 2026-05-07 17:38 | 52.26351 | 17.77591 | 29997 ft | 449 kts | 102° |
| 2026-05-07 17:38 | 52.26095 | 17.82647 | 29417 ft | 443 kts | 102° |
| 2026-05-07 17:38 | 52.25842 | 17.87602 | 28865 ft | 441 kts | 102° |
| 2026-05-07 17:39 | 52.25586 | 17.92601 | 28319 ft | 442 kts | 101° |
| 2026-05-07 17:39 | 52.25583 | 17.97675 | 27772 ft | 452 kts | 90° |
| 2026-05-07 17:39 | 52.26095 | 18.02771 | 27255 ft | 453 kts | 85° |
| 2026-05-07 17:39 | 52.26701 | 18.07742 | 26697 ft | 450 kts | 85° |
| 2026-05-07 17:40 | 52.27318 | 18.12742 | 26188 ft | 447 kts | 85° |
| 2026-05-07 17:40 | 52.27924 | 18.17706 | 25690 ft | 445 kts | 85° |
| 2026-05-07 17:40 | 52.28514 | 18.22656 | 25194 ft | 442 kts | 85° |
| 2026-05-07 17:40 | 52.29089 | 18.27582 | 24706 ft | 439 kts | 85° |
| 2026-05-07 17:41 | 52.29651 | 18.32477 | 24229 ft | 437 kts | 85° |
| 2026-05-07 17:41 | 52.30205 | 18.37356 | 23770 ft | 435 kts | 85° |
| 2026-05-07 17:41 | 52.30751 | 18.42209 | 23251 ft | 433 kts | 85° |
| 2026-05-07 17:41 | 52.31291 | 18.47037 | 22705 ft | 431 kts | 84° |
| 2026-05-07 17:42 | 52.31827 | 18.51846 | 22170 ft | 429 kts | 84° |
| 2026-05-07 17:42 | 52.32358 | 18.56624 | 21642 ft | 426 kts | 84° |
| 2026-05-07 17:42 | 52.32885 | 18.61380 | 21116 ft | 423 kts | 84° |
| 2026-05-07 17:42 | 52.33405 | 18.66088 | 20591 ft | 420 kts | 84° |
| 2026-05-07 17:43 | 52.33920 | 18.70769 | 20093 ft | 416 kts | 84° |
| 2026-05-07 17:43 | 52.34428 | 18.75403 | 19590 ft | 413 kts | 83° |
| 2026-05-07 17:43 | 52.34930 | 18.80003 | 19109 ft | 409 kts | 83° |
| 2026-05-07 17:43 | 52.35428 | 18.84577 | 18632 ft | 406 kts | 83° |
| 2026-05-07 17:44 | 52.35914 | 18.89057 | 18146 ft | 403 kts | 83° |
| 2026-05-07 17:44 | 52.36400 | 18.93552 | 17606 ft | 400 kts | 83° |
| 2026-05-07 17:44 | 52.36881 | 18.98026 | 17071 ft | 397 kts | 83° |
| 2026-05-07 17:44 | 52.37356 | 19.02461 | 16548 ft | 394 kts | 83° |
| 2026-05-07 17:45 | 52.37826 | 19.06862 | 16034 ft | 392 kts | 83° |
| 2026-05-07 17:45 | 52.38292 | 19.11242 | 15537 ft | 389 kts | 83° |
| 2026-05-07 17:45 | 52.38752 | 19.15587 | 15042 ft | 387 kts | 83° |
| 2026-05-07 17:45 | 52.39210 | 19.19920 | 14554 ft | 384 kts | 83° |
| 2026-05-07 17:46 | 52.39662 | 19.24225 | 14047 ft | 382 kts | 83° |
| 2026-05-07 17:46 | 52.40105 | 19.28448 | 13556 ft | 380 kts | 83° |
| 2026-05-07 17:46 | 52.40549 | 19.32704 | 13036 ft | 378 kts | 82° |
| 2026-05-07 17:46 | 52.40990 | 19.36947 | 12511 ft | 376 kts | 82° |
| 2026-05-07 17:47 | 52.41427 | 19.41164 | 12002 ft | 374 kts | 82° |
| 2026-05-07 17:47 | 52.41862 | 19.45369 | 11482 ft | 372 kts | 82° |
| 2026-05-07 17:47 | 52.42290 | 19.49533 | 11102 ft | 367 kts | 82° |
| 2026-05-07 17:47 | 52.42707 | 19.53592 | 11026 ft | 357 kts | 82° |
| 2026-05-07 17:48 | 52.43116 | 19.57588 | 11004 ft | 355 kts | 82° |
| 2026-05-07 17:48 | 52.43519 | 19.61547 | 10756 ft | 359 kts | 82° |
| 2026-05-07 17:48 | 52.43931 | 19.65617 | 10259 ft | 362 kts | 82° |
| 2026-05-07 17:48 | 52.44341 | 19.69679 | 9765 ft | 361 kts | 82° |
| 2026-05-07 17:49 | 52.44749 | 19.73727 | 9238 ft | 359 kts | 82° |
| 2026-05-07 17:49 | 52.45154 | 19.77761 | 8717 ft | 357 kts | 82° |
| 2026-05-07 17:49 | 52.45555 | 19.81769 | 8207 ft | 355 kts | 82° |
| 2026-05-07 17:49 | 52.45953 | 19.85758 | 7706 ft | 354 kts | 81° |
| 2026-05-07 17:50 | 52.46349 | 19.89739 | 7221 ft | 352 kts | 81° |
| 2026-05-07 17:50 | 52.46736 | 19.93648 | 7043 ft | 340 kts | 81° |
| 2026-05-07 17:50 | 52.47107 | 19.97401 | 6992 ft | 324 kts | 81° |
| 2026-05-07 17:50 | 52.47454 | 20.00919 | 6976 ft | 301 kts | 82° |
| 2026-05-07 17:51 | 52.47776 | 20.04198 | 6975 ft | 282 kts | 82° |
| 2026-05-07 17:51 | 52.48084 | 20.07349 | 6991 ft | 280 kts | 82° |
| 2026-05-07 17:51 | 52.48404 | 20.10645 | 7029 ft | 305 kts | 82° |
| 2026-05-07 17:51 | 52.48742 | 20.14142 | 6979 ft | 317 kts | 82° |
| 2026-05-07 17:52 | 52.49085 | 20.17693 | 6710 ft | 312 kts | 82° |
| 2026-05-07 17:52 | 52.49420 | 20.21153 | 6449 ft | 301 kts | 82° |
| 2026-05-07 17:52 | 52.49741 | 20.24485 | 6194 ft | 289 kts | 81° |
| 2026-05-07 17:52 | 52.50050 | 20.27695 | 5921 ft | 279 kts | 81° |
| 2026-05-07 17:53 | 52.50345 | 20.30787 | 5692 ft | 268 kts | 81° |
| 2026-05-07 17:53 | 52.50619 | 20.33656 | 5590 ft | 248 kts | 81° |
| 2026-05-07 17:53 | 52.50875 | 20.36342 | 5453 ft | 229 kts | 81° |
| 2026-05-07 17:53 | 52.51110 | 20.38820 | 5325 ft | 211 kts | 81° |
| 2026-05-07 17:54 | 52.51328 | 20.41120 | 5185 ft | 197 kts | 81° |
| 2026-05-07 17:54 | 52.51534 | 20.43305 | 4941 ft | 190 kts | 81° |
| 2026-05-07 17:54 | 52.51736 | 20.45443 | 4698 ft | 190 kts | 81° |
| 2026-05-07 17:54 | 52.51936 | 20.47567 | 4449 ft | 186 kts | 81° |
| 2026-05-07 17:55 | 52.52130 | 20.49634 | 4176 ft | 179 kts | 81° |
| 2026-05-07 17:55 | 52.52321 | 20.51667 | 4053 ft | 183 kts | 81° |
| 2026-05-07 17:55 | 52.52512 | 20.53705 | 4062 ft | 176 kts | 81° |
| 2026-05-07 17:55 | 52.52693 | 20.55652 | 3993 ft | 169 kts | 81° |
| 2026-05-07 17:56 | 52.52868 | 20.57525 | 3981 ft | 163 kts | 81° |
| 2026-05-07 17:56 | 52.53034 | 20.59312 | 4016 ft | 160 kts | 81° |
| 2026-05-07 17:56 | 52.53202 | 20.61113 | 4003 ft | 159 kts | 81° |
| 2026-05-07 17:56 | 52.53370 | 20.62919 | 4004 ft | 161 kts | 81° |
| 2026-05-07 17:57 | 52.53538 | 20.64741 | 3992 ft | 165 kts | 81° |
| 2026-05-07 17:57 | 52.53659 | 20.66043 | 3932 ft | 179 kts | 81° |
| 2026-05-07 17:57 | 52.53918 | 20.68849 | 4007 ft | 197 kts | 81° |
| 2026-05-07 17:57 | 52.54128 | 20.71121 | 3817 ft | 204 kts | 81° |
| 2026-05-07 17:58 | 52.54268 | 20.72650 | 3647 ft | 203 kts | 81° |
| 2026-05-07 17:58 | 52.54476 | 20.74916 | 3454 ft | 196 kts | 81° |
| 2026-05-07 17:58 | 52.54670 | 20.77044 | 3400 ft | 180 kts | 81° |
| 2026-05-07 17:58 | 52.54846 | 20.78971 | 3436 ft | 163 kts | 81° |
| 2026-05-07 17:59 | 52.55015 | 20.80815 | 3394 ft | 162 kts | 81° |
| 2026-05-07 17:59 | 52.55182 | 20.82636 | 3400 ft | 161 kts | 81° |
| 2026-05-07 17:59 | 52.55346 | 20.84444 | 3409 ft | 162 kts | 81° |
| 2026-05-07 17:59 | 52.55513 | 20.86295 | 3356 ft | 165 kts | 81° |
| 2026-05-07 18:00 | 52.55684 | 20.88177 | 3142 ft | 165 kts | 81° |
| 2026-05-07 18:00 | 52.55850 | 20.90020 | 3017 ft | 164 kts | 81° |
| 2026-05-07 18:00 | 52.56015 | 20.91854 | 3034 ft | 158 kts | 79° |
| 2026-05-07 18:00 | 52.56062 | 20.93638 | 2988 ft | 158 kts | 104° |
| 2026-05-07 18:01 | 52.55364 | 20.94923 | 3003 ft | 158 kts | 162° |
| 2026-05-07 18:01 | 52.54282 | 20.95191 | 3009 ft | 158 kts | 175° |
| 2026-05-07 18:01 | 52.53199 | 20.95463 | 3003 ft | 157 kts | 173° |
| 2026-05-07 18:01 | 52.52122 | 20.95735 | 3001 ft | 157 kts | 174° |
| 2026-05-07 18:02 | 52.49972 | 20.96270 | 2994 ft | 156 kts | 173° |
| 2026-05-07 18:02 | 52.48897 | 20.96484 | 2982 ft | 154 kts | 186° |
| 2026-05-07 18:02 | 52.48033 | 20.95657 | 2989 ft | 145 kts | 243° |
| 2026-05-07 18:03 | 52.47854 | 20.94069 | 3006 ft | 144 kts | 266° |
| 2026-05-07 18:03 | 52.47711 | 20.92432 | 3000 ft | 146 kts | 262° |
| 2026-05-07 18:03 | 52.47553 | 20.90780 | 3000 ft | 146 kts | 263° |
| 2026-05-07 18:03 | 52.47399 | 20.89167 | 2984 ft | 142 kts | 263° |
| 2026-05-07 18:04 | 52.47245 | 20.87535 | 3003 ft | 146 kts | 263° |
| 2026-05-07 18:04 | 52.47089 | 20.85910 | 2994 ft | 146 kts | 262° |
| 2026-05-07 18:04 | 52.46929 | 20.84239 | 2786 ft | 149 kts | 262° |
| 2026-05-07 18:04 | 52.46769 | 20.82556 | 2553 ft | 149 kts | 262° |
| 2026-05-07 18:05 | 52.46607 | 20.80865 | 2328 ft | 150 kts | 263° |
| 2026-05-07 18:05 | 52.46447 | 20.79174 | 2095 ft | 150 kts | 264° |
| 2026-05-07 18:05 | 52.46286 | 20.77489 | 1868 ft | 149 kts | 264° |
| 2026-05-07 18:05 | 52.46128 | 20.75820 | 1637 ft | 148 kts | 264° |
| 2026-05-07 18:06 | 52.45970 | 20.74148 | 1407 ft | 148 kts | 264° |
| 2026-05-07 18:06 | 52.45813 | 20.72487 | 1174 ft | 147 kts | 264° |
| 2026-05-07 18:06 | 52.45659 | 20.70845 | 954 ft | 144 kts | 264° |
| 2026-05-07 18:06 | 52.45501 | 20.69239 | 723 ft | 146 kts | 263° |
| 2026-05-07 18:07 | 52.45349 | 20.67597 | 489 ft | 144 kts | 263° |
| 2026-05-07 18:07 | 52.45193 | 20.66006 | 358 ft | 133 kts | 262° |
| 2026-05-07 18:07 | 52.45101 | 20.64985 | 350 ft | 52 kts | 262° |
| 2026-05-07 18:07 | 52.45056 | 20.64511 | 351 ft | 19 kts | 260° |
| 2026-05-07 18:08 | 52.44982 | 20.64384 | 350 ft | 16 kts | 184° |
| 2026-05-07 18:08 | 52.44919 | 20.64379 | 350 ft | 0 kts | 181° |
| 2026-05-07 18:08 | 52.44893 | 20.64378 | 354 ft | 10 kts | 182° |
| 2026-05-07 18:09 | 52.44814 | 20.64373 | 351 ft | 13 kts | 182° |
| 2026-05-07 18:09 | 52.44738 | 20.64369 | 358 ft | 8 kts | 175° |
| 2026-05-07 18:09 | 52.44715 | 20.64476 | 350 ft | 12 kts | 82° |
| 2026-05-07 18:09 | 52.44731 | 20.64643 | 350 ft | 19 kts | 80° |
| 2026-05-07 18:10 | 52.44753 | 20.64857 | 354 ft | 19 kts | 82° |
| 2026-05-07 18:10 | 52.44774 | 20.65097 | 352 ft | 23 kts | 81° |
| 2026-05-07 18:10 | 52.44786 | 20.65221 | 350 ft | 7 kts | 81° |
| 2026-05-07 18:10 | 52.44785 | 20.65302 | 349 ft | 9 kts | 125° |